Tiempo atmosférico en la estación meteorológica de Espolla, Girona (94 m.)

Fecha
DESCASC
Temp. máxima en grados centígrados (hora)
DESCASC
Temp. mínima en grados centígrados (hora)
DESCASC
Temp. media en grados centígrados
DESCASC
Racha de viento máxima en m/sg (hora)
DESCASC
Velocidad máxima media en intervalos de 10 minutos(hora)
DESCASC
Precipitaciones diarias en mm
DESCASC
Precipitaciones de 00:00 a 06:00 en mm
DESCASC
Precipitaciones de 06:00 a 12:00 en mm
DESCASC
Precipitaciones de 12:00 a 18:00 en mm
DESCASC
Precipitaciones de 18:00 a 24:00 en mm
DESCASC
17-09-2017 21.7 (15:10) 8 (03:50) 14.9 6.67 (17:40) 4.17 (17:40) 0 0 0 0 0
16-09-2017 20.8 (13:20) 11.5 (00:40) 16.1 12.22 (04:20) 6.94 (04:20) 2.4 0 0 0.2 2.2
15-09-2017 17.8 (02:30) 9.9 (22:10) 13.8 10.56 (02:10) 5 (22:40) 5 0.4 1.6 2.8 0.2
14-09-2017 25.8 (11:50) 16.5 (00:00) 21.1 20 (20:10) 11.39 (13:50) 0.4 0 0 0 0.4
13-09-2017 27.4 (17:20) 14.1 (00:00) 20.8 8.33 (13:50) 4.44 (15:40) 0 0 0 0 0
12-09-2017 24.1 (14:30) 18.2 (00:00) 21.2 16.67 (07:20) 8.61 (08:50) 0 0 0 0 0
11-09-2017 25.2 (16:40) 14 (00:00) 19.6 12.5 (15:00) 7.22 (15:00) 0 0 0 0 0
10-09-2017 23.2 (16:10) 15 (00:00) 19.1 19.44 (02:40) 10.28 (03:40) 0 0 0 0 0
09-09-2017 19.5 (11:30) 13 (00:00) 16.3 25.28 (12:50) 12.22 (13:20) 13.2 0 4.8 7.6 0.8
08-09-2017 26.8 (15:00) 14 (00:00) 20.4 10 (16:10) 5.56 (00:50) 0 0 0 0 0
07-09-2017 27.1 (15:30) 13.6 (00:00) 20.4 11.67 (19:10) 6.39 (18:50) 0 0 0 0 0
06-09-2017 28.3 (17:30) 21.1 (00:00) 24.7 15.83 (22:30) 8.89 (22:30) 0 0 0 0 0
05-09-2017 31.4 (16:30) 17.9 (00:00) 24.6 8.06 (15:00) 4.72 (17:50) 0 0 0 0 0
04-09-2017 28.5 (15:30) 17.7 (00:00) 23.1 8.33 (15:40) 4.17 (14:10) 0.2 0 0.2 0 0
03-09-2017 25 (12:30) 15.3 (00:00) 20.2 13.06 (00:40) 6.39 (00:40) 0 0 0 0 0
02-09-2017 26.2 (16:30) 17 (00:00) 21.6 21.11 (04:00) 12.22 (06:00) 1.8 1.8 0 0 0
01-09-2017 24.8 (14:20) 14.6 (00:00) 19.7 15 (21:20) 8.06 (23:20) 0 0 0 0 0
31-08-2017 25.5 (00:10) 14.6 (00:00) 20.1 6.39 (07:10) 4.72 (07:10) 7.8 0 2.2 2 3.6
30-08-2017 35.4 (16:40) 19.2 (00:00) 27.3 13.06 (17:20) 7.78 (17:20) 0 0 0 0 0
29-08-2017 31.6 (13:40) 21.2 (00:00) 26.4 6.67 (14:10) 3.89 (14:00) 0 0 0 0 0
28-08-2017 33.1 (15:30) 19 (00:00) 26 6.67 (15:30) 4.44 (15:40) 0 0 0 0 0
27-08-2017 31.1 (15:00) 20.9 (00:00) 26 7.22 (13:50) 4.17 (16:30) 0 0 0 0 0
26-08-2017 29.4 (13:40) 22.4 (00:00) 25.9 10 (15:00) 5.56 (15:30) 0 0 0 0 0
25-08-2017 32.1 (14:10) 19.6 (00:00) 25.8 11.39 (15:50) 7.5 (14:40) 0 0 0 0 0
24-08-2017 31.4 (16:00) 21.6 (00:00) 26.5 8.06 (19:00) 4.44 (18:30) 0 0 0 0 0
23-08-2017 31.5 (16:20) 18.7 (00:00) 25.1 9.44 (15:50) 5.83 (15:30) 0 0 0 0 0
22-08-2017 31.4 (15:00) 16.5 (00:00) 23.9 8.89 (15:40) 5.56 (17:50) 0 0 0 0 0

Gráficas

Temp. máximas Temp. mínimas Temp. medias Precipitaciones Rachas de viento máximas Velocidades máximas media en intervalos de 10 minutos

Datos horarios

Fecha y hora oficial Temperatura (ºC) Velocidad del viento (km/h) Dirección del viento Racha (km/h) Dirección de racha Precipitación (mm) Presión (hPa) Tendencia (hPa) Humedad (%)
2017-09-20 23:00:00 14.6 5 Nordeste 11 Nordeste 0 -- -- 76
2017-09-20 22:00:00 15.3 7 Nordeste 13 Nordeste 0 -- -- 72
2017-09-20 21:00:00 16.4 5 Nordeste 9 Nordeste 0 -- -- 66
2017-09-20 20:00:00 19.3 0 Calma 9 Sudeste 0 -- -- 56
2017-09-20 19:00:00 21.1 9 Sur 19 Sur 0 -- -- 50
2017-09-20 18:00:00 23.2 12 Sur 27 Sudoeste 0.2 -- -- 44
2017-09-20 17:00:00 24.7 13 Sur 27 Sur 0 -- -- 37
2017-09-20 16:00:00 24.4 11 Sur -- -- -- -- -- 34
2017-09-20 15:00:00 -- -- -- -- -- -- -- -- --
2017-09-20 14:00:00 23.9 5 Sudoeste 22 Oeste -- -- -- 29
2017-09-20 13:00:00 23.3 13 Noroeste 26 Noroeste -- -- -- 27
2017-09-20 12:00:00 22.1 18 Noroeste 40 Noroeste -- -- -- 34
2017-09-20 11:00:00 19.9 22 Oeste 42 Oeste 0 -- -- 42
2017-09-20 10:00:00 18.1 17 Oeste 35 Oeste 0 -- -- 47
2017-09-20 09:00:00 16.5 7 Sur 21 Oeste 0 -- -- 52
2017-09-20 08:00:00 14.1 5 Noroeste 15 Noroeste 0 -- -- 59
2017-09-20 07:00:00 12.9 10 Oeste 17 Oeste 0 -- -- 63
2017-09-20 06:00:00 13.3 4 Oeste 15 Oeste 0 -- -- 60
2017-09-20 05:00:00 15.5 4 Sudoeste 22 Este 0 -- -- 53
2017-09-20 04:00:00 15.9 12 Nordeste 40 Norte 0 -- -- 51
2017-09-20 03:00:00 15.8 15 Norte 36 Norte 0 -- -- 53
2017-09-20 02:00:00 16.3 19 Norte 45 Norte 0 -- -- 50
2017-09-20 01:00:00 16.8 28 Norte 53 Norte 0 -- -- 52
2017-09-20 00:00:00 17.4 30 Norte 59 Norte 0 -- -- 51
2017-09-19 23:00:00 18.2 23 Norte 49 Norte 0 -- -- 44
2017-09-19 22:00:00 18.7 23 Norte 36 Norte 0 -- -- 38
2017-09-19 21:00:00 18.9 17 Norte 40 Noroeste 0 -- -- 37
2017-09-19 20:00:00 19.3 23 Norte 53 Norte 0 -- -- 39
2017-09-19 19:00:00 20.3 21 Norte 49 Nordeste 0 -- -- 40
2017-09-19 18:00:00 21.5 22 Norte 63 Norte 0 -- -- 36
2017-09-19 17:00:00 21.9 39 Norte 65 Norte 0 -- -- 32
2017-09-19 16:00:00 22 36 Norte 69 Norte 0 -- -- 32
2017-09-19 15:00:00 22.1 35 Norte 69 Norte 0 -- -- 34
2017-09-19 14:00:00 21.1 30 Norte 69 Norte 0 -- -- 36
2017-09-19 13:00:00 20.6 31 Norte 58 Nordeste 0 -- -- 37
2017-09-19 12:00:00 19.4 37 Norte 58 Noroeste 0 -- -- 43
2017-09-19 11:00:00 18.7 29 Norte 57 Noroeste 0 -- -- 46
2017-09-19 10:00:00 17.2 30 Norte 72 Norte 0 -- -- 50
2017-09-19 09:00:00 16.5 27 Norte 54 Norte 0 -- -- 54
2017-09-19 08:00:00 15.8 26 Norte 55 Norte 0 -- -- 55
2017-09-19 07:00:00 15.6 24 Norte 56 Noroeste 0 -- -- 59
2017-09-19 06:00:00 16.1 30 Norte 57 Noroeste 0 -- -- 57
2017-09-19 05:00:00 14.6 6 Nordeste 29 Noroeste 0 -- -- 68
2017-09-19 04:00:00 15.7 17 Noroeste 29 Noroeste 0 -- -- 66
2017-09-19 03:00:00 15.9 12 Noroeste 38 Noroeste 0 -- -- 65
2017-09-19 02:00:00 16.6 12 Noroeste 42 Norte 0 -- -- 62
2017-09-19 01:00:00 17 8 Norte 39 Nordeste 0 -- -- 58
2017-09-19 00:00:00 17.4 16 Norte 49 Norte 0 -- -- 54
2017-09-18 23:00:00 17.5 19 Norte 38 Nordeste 0 -- -- 52
2017-09-18 22:00:00 17.8 20 Nordeste 49 Nordeste 0 -- -- 50
2017-09-18 21:00:00 17.8 33 Norte 58 Norte 0 -- -- 52
2017-09-18 20:00:00 17.6 30 Norte 57 Norte 0 -- -- 61
2017-09-18 19:00:00 19.1 13 Norte 39 Noroeste 0 -- -- 55
2017-09-18 18:00:00 19.8 9 Norte 28 Noroeste 0 -- -- 55
2017-09-18 17:00:00 19.5 12 Sudeste 21 Sudeste 0 -- -- 61
2017-09-18 16:00:00 20.6 5 Sudeste 12 Sudoeste 0 -- -- 52
2017-09-18 15:00:00 19.6 5 Sudoeste 14 Sudoeste 0 -- -- 58
2017-09-18 14:00:00 18.3 8 Sur 15 Sur 0 -- -- 64
2017-09-18 13:00:00 17.1 6 Sudoeste 12 Sur 0 -- -- 68
2017-09-18 12:00:00 17 7 Sur 11 Sur 0 -- -- 68
2017-09-18 11:00:00 16.2 0 Calma 7 Oeste 0 -- -- 69
2017-09-18 10:00:00 14.9 2 Oeste 5 Sur 0 -- -- 79
2017-09-18 09:00:00 14 0 Calma 11 Nordeste 0 -- -- 81
2017-09-18 08:00:00 13.5 8 Nordeste 14 Nordeste 0 -- -- 77
2017-09-18 07:00:00 12.8 4 Nordeste 7 Nordeste 0 -- -- 81
2017-09-18 06:00:00 12.3 3 Este 10 Nordeste 0 -- -- 82
2017-09-18 05:00:00 12.2 5 Nordeste 9 Nordeste 0 -- -- 81
2017-09-18 04:00:00 11.8 5 Nordeste 9 Nordeste 0 -- -- 81
2017-09-18 03:00:00 13.2 4 Nordeste 13 Nordeste 0 -- -- 76
2017-09-18 02:00:00 13.6 8 Nordeste 12 Nordeste 0 -- -- 75
2017-09-18 01:00:00 13.6 3 Norte 10 Nordeste 0 -- -- 75
2017-09-18 00:00:00 13.9 0 Calma 9 Noroeste 0 -- -- 76
2017-09-17 23:00:00 14.3 3 Nordeste 6 Nordeste 0 -- -- 70
2017-09-17 22:00:00 15.5 2 Este 10 Nordeste 0 -- -- 66
2017-09-17 21:00:00 17.2 8 Nordeste 17 Nordeste 0 -- -- 55
2017-09-17 20:00:00 17.7 10 Nordeste 17 Nordeste 0 -- -- 54
2017-09-17 19:00:00 20.1 9 Este 21 Sudeste 0 -- -- 48
2017-09-17 18:00:00 20.8 13 Sudeste 24 Sudeste 0 -- -- 46
2017-09-17 17:00:00 20.9 12 Sudeste 23 Sur 0 -- -- 47
2017-09-17 16:00:00 20.5 8 Sudeste 22 Sur 0 -- -- 51
2017-09-17 15:00:00 21.5 10 Sur 22 Sur 0 -- -- 46
2017-09-17 14:00:00 20.7 9 Sur 21 Sudoeste 0 -- -- 46
2017-09-17 13:00:00 19.2 11 Sur 22 Sur 0 -- -- 49
2017-09-17 12:00:00 18.3 12 Sur 21 Sur 0 -- -- 58
2017-09-17 11:00:00 16.7 9 Sur 15 Sur 0 -- -- 63
2017-09-17 10:00:00 15.2 5 Sur 9 Sur 0 -- -- 66
2017-09-17 09:00:00 11.7 6 Nordeste 12 Nordeste 0 -- -- 80
2017-09-17 08:00:00 9.7 2 Nordeste 14 Nordeste 0 -- -- 86
2017-09-17 07:00:00 9 2 Nordeste 13 Nordeste 0 -- -- 91
2017-09-17 06:00:00 8.4 0 Calma 10 Nordeste 0 -- -- 94
2017-09-17 05:00:00 8.2 0 Calma 8 Nordeste 0 -- -- 94
2017-09-17 04:00:00 8.1 3 Norte 6 Norte 0 -- -- 94
2017-09-17 03:00:00 8.3 4 Norte 9 Nordeste 0 -- -- 93
2017-09-17 02:00:00 9.6 4 Nordeste 15 Noroeste 0 -- -- 92
2017-09-17 01:00:00 11 0 Calma 12 Oeste 0 -- -- 90
2017-09-17 00:00:00 11.6 7 Este 17 Noroeste 1.6 -- -- 88
2017-09-16 23:00:00 13.6 14 Oeste 24 Oeste 0.2 -- -- 69
2017-09-16 22:00:00 12.9 8 Sudoeste 21 Noroeste 0 -- -- 78
2017-09-16 21:00:00 12.7 9 Sudoeste 16 Oeste 0 -- -- 91
2017-09-16 20:00:00 13.1 4 Nordeste 21 Sudoeste 0 -- -- 90
2017-09-16 19:00:00 14.4 0 Calma 10 Sudeste 0.4 -- -- 86
2017-09-16 18:00:00 14.7 8 Sur 26 Sudoeste 0 -- -- 82
2017-09-16 17:00:00 18.4 9 Norte 21 Noroeste 0.2 -- -- 49
2017-09-16 16:00:00 19.5 9 Nordeste 17 Este 0 -- -- 45
2017-09-16 15:00:00 20.3 5 Sur 14 Oeste 0 -- -- 43
2017-09-16 14:00:00 20.4 10 Noroeste 17 Norte 0 -- -- 43
2017-09-16 13:00:00 20.5 6 Norte 16 Norte 0 -- -- 43
2017-09-16 12:00:00 18.9 10 Norte 24 Norte 0 -- -- 46
2017-09-16 11:00:00 18.9 12 Noroeste 27 Noroeste 0 -- -- 45
2017-09-16 10:00:00 17.8 7 Sudeste 18 Este 0 -- -- 49
2017-09-16 09:00:00 15.1 11 Sudeste 15 Sudeste 0 -- -- 57
2017-09-16 08:00:00 12.4 5 Este 20 Nordeste 0 -- -- 65
2017-09-16 07:00:00 12.1 4 Sur 18 Oeste 0 -- -- 67
2017-09-16 06:00:00 14.1 11 Nordeste 39 Norte 0 -- -- 59
2017-09-16 05:00:00 14.9 12 Noroeste 44 Norte 0 -- -- 53
2017-09-16 04:00:00 14.7 18 Norte 41 Norte 0 -- -- 55
2017-09-16 03:00:00 14.3 14 Noroeste 33 Noroeste 0 -- -- 61
2017-09-16 02:00:00 14.3 7 Noroeste 33 Norte 0 -- -- 61
2017-09-16 01:00:00 14.1 13 Norte 31 Noroeste 0 -- -- 62
2017-09-16 00:00:00 14.3 14 Norte 26 Norte 0 -- -- 66
2017-09-15 23:00:00 13.9 13 Norte 31 Norte 0 -- -- 73
2017-09-15 22:00:00 10.1 4 Norte 10 Nordeste 0 -- -- 92
2017-09-15 21:00:00 11.2 6 Nordeste 11 Nordeste 0 -- -- 92
2017-09-15 20:00:00 12.1 3 Norte 9 Este 0 -- -- 91
2017-09-15 19:00:00 12.3 5 Este 12 Nordeste 0.2 -- -- 90
2017-09-15 18:00:00 12.7 4 Nordeste 11 Nordeste 1 -- -- 89
2017-09-15 17:00:00 13.6 2 Nordeste 8 Norte 0.8 -- -- 82
2017-09-15 16:00:00 14.6 7 Norte 20 Norte 0.2 -- -- 69
2017-09-15 15:00:00 15.1 9 Nordeste 21 Norte 0.2 -- -- 64
2017-09-15 14:00:00 15 4 Norte 15 Noroeste 0.2 -- -- 76
2017-09-15 13:00:00 15.1 6 Noroeste 17 Norte 0.4 -- -- 76
2017-09-15 12:00:00 14.2 4 Sur 10 Este 0 -- -- 88
2017-09-15 11:00:00 13.7 7 Sudeste 13 Sudeste 0.6 -- -- 90
2017-09-15 10:00:00 13.6 5 Sur 10 Sur 0.2 -- -- 91
2017-09-15 09:00:00 13.2 9 Oeste 14 Oeste 0.4 -- -- 90
2017-09-15 08:00:00 13.3 5 Oeste 10 Sudeste 0.4 -- -- 89
2017-09-15 07:00:00 13.4 3 Sudeste 6 Noroeste 0 -- -- 90
2017-09-15 06:00:00 13.7 3 Sudoeste 12 Nordeste 0 -- -- 87
2017-09-15 05:00:00 14 7 Sudeste 14 Sudoeste 0.4 -- -- 85
2017-09-15 04:00:00 16.5 11 Nordeste 35 Norte 0 -- -- 59
2017-09-15 03:00:00 17.6 12 Nordeste 38 Norte 0 -- -- 54
2017-09-15 02:00:00 17.7 14 Norte 32 Norte 0 -- -- 55
2017-09-15 01:00:00 17.1 8 Sur 23 Sur 0 -- -- 61
2017-09-15 00:00:00 16.8 13 Nordeste 48 Norte 0.2 -- -- 63
2017-09-14 23:00:00 18.5 17 Norte 57 Norte 0 -- -- 49
2017-09-14 22:00:00 18.2 26 Norte 60 Norte 0.2 -- -- 50
2017-09-14 21:00:00 17.9 32 Norte 72 Noroeste 0 -- -- 55
2017-09-14 20:00:00 18.4 33 Norte 65 Norte 0 -- -- 47
2017-09-14 19:00:00 18.6 24 Norte 52 Norte 0 -- -- 49
2017-09-14 18:00:00 19.3 14 Norte 44 Nordeste 0 -- -- 55
2017-09-14 17:00:00 20.9 21 Norte 44 Norte 0 -- -- 49
2017-09-14 16:00:00 22.8 24 Norte 46 Nordeste 0 -- -- 45
2017-09-14 15:00:00 23 28 Nordeste 63 Norte 0 -- -- 46
2017-09-14 14:00:00 21.8 37 Norte 71 Norte 0 -- -- 48
2017-09-14 13:00:00 25.1 27 Norte 47 Norte 0 -- -- 51
2017-09-14 12:00:00 25.4 20 Norte 39 Noroeste 0 -- -- 54
2017-09-14 11:00:00 23.5 4 Sur 10 Sudeste 0 -- -- 61
2017-09-14 10:00:00 22.3 2 Oeste 11 Sudoeste 0 -- -- 68
2017-09-14 09:00:00 19.4 5 Sur 12 Nordeste 0 -- -- 80
2017-09-14 08:00:00 17.9 3 Sudeste 18 Nordeste 0 -- -- 82
2017-09-14 07:00:00 16.5 5 Este 13 Nordeste 0 -- -- 87
2017-09-14 06:00:00 16.9 6 Nordeste 12 Nordeste 0 -- -- 87
2017-09-14 05:00:00 17.2 4 Norte 12 Nordeste 0 -- -- 84
2017-09-14 04:00:00 17.8 2 Nordeste 10 Nordeste 0 -- -- 82
2017-09-14 03:00:00 18.4 8 Nordeste 13 Nordeste 0 -- -- 79
2017-09-14 02:00:00 18.9 5 Nordeste 16 Nordeste 0 -- -- 77
2017-09-14 01:00:00 19.2 8 Nordeste 13 Nordeste 0 -- -- 77
2017-09-14 00:00:00 19.5 3 Norte 13 Nordeste 0 -- -- 75
2017-09-13 23:00:00 20.6 10 Nordeste 15 Nordeste 0 -- -- 71
2017-09-13 22:00:00 21.4 10 Nordeste 16 Nordeste 0 -- -- 68
2017-09-13 21:00:00 22.3 9 Nordeste 15 Nordeste 0 -- -- 66
2017-09-13 20:00:00 25.3 4 Este 12 Este 0 -- -- 58
2017-09-13 19:00:00 26.7 7 Sudeste 18 Sudeste 0 -- -- 53
2017-09-13 18:00:00 27.4 9 Sur 21 Sur 0 -- -- 52
2017-09-13 17:00:00 26.7 13 Sur 23 Sur 0 -- -- 56
2017-09-13 16:00:00 26.3 15 Sur 24 Sur 0 -- -- 55
2017-09-13 15:00:00 26.7 11 Sur 24 Sur 0 -- -- 51
2017-09-13 14:00:00 26.6 9 Sur 30 Sudeste 0 -- -- 47
2017-09-13 13:00:00 25.8 11 Sudoeste 21 Sudoeste 0 -- -- 48
2017-09-13 12:00:00 24.7 6 Oeste 14 Sudoeste 0 -- -- 49
2017-09-13 11:00:00 22.8 8 Sudoeste 13 Sudoeste 0 -- -- 58
2017-09-13 10:00:00 20.9 6 Sudoeste 11 Sudoeste 0 -- -- 67
2017-09-13 09:00:00 18.2 3 Norte 16 Nordeste 0 -- -- 74
2017-09-13 08:00:00 14.9 12 Nordeste 15 Nordeste 0 -- -- 83
2017-09-13 07:00:00 14.3 3 Nordeste 11 Nordeste 0 -- -- 88
2017-09-13 06:00:00 14.7 4 Nordeste 11 Nordeste 0 -- -- 87
2017-09-13 05:00:00 14.5 4 Nordeste 9 Nordeste 0 -- -- 86
2017-09-13 04:00:00 15.1 0 Calma 13 Nordeste 0 -- -- 79
2017-09-13 03:00:00 16.1 8 Nordeste 20 Nordeste 0 -- -- 71
2017-09-13 02:00:00 16.7 14 Nordeste 19 Nordeste 0 -- -- 65
2017-09-13 01:00:00 17.1 4 Norte 6 Nordeste 0 -- -- 70
2017-09-13 00:00:00 18.8 5 Nordeste 8 Sudeste 0 -- -- 69
2017-09-12 23:00:00 19.3 0 Calma 9 Sudeste 0 -- -- 69
2017-09-12 22:00:00 20 7 Este 10 Este 0 -- -- 65
2017-09-12 21:00:00 20.4 4 Este 12 Sudeste 0 -- -- 63
2017-09-12 20:00:00 21.1 6 Sur 17 Sudoeste 0 -- -- 59
2017-09-12 19:00:00 22.7 4 Sudeste 20 Norte 0 -- -- 45
2017-09-12 18:00:00 23.1 10 Noroeste 30 Norte 0 -- -- 41
2017-09-12 17:00:00 23.4 12 Norte 27 Noroeste 0 -- -- 41
2017-09-12 16:00:00 23 12 Norte 30 Noroeste 0 -- -- 41
2017-09-12 15:00:00 23.3 20 Norte 39 Norte 0 -- -- 41
2017-09-12 14:00:00 22.9 15 Norte 41 Norte 0 -- -- 43
2017-09-12 13:00:00 21.6 23 Norte 42 Nordeste 0 -- -- 45
2017-09-12 12:00:00 20.9 18 Norte 42 Norte 0 -- -- 46
2017-09-12 11:00:00 20.6 23 Norte 44 Norte 0 -- -- 46
2017-09-12 10:00:00 19.4 18 Norte 48 Norte 0 -- -- 48
2017-09-12 09:00:00 19.3 23 Norte 60 Noroeste 0 -- -- 48
2017-09-12 08:00:00 18.9 22 Norte 60 Norte 0 -- -- 50
2017-09-12 07:00:00 18.5 11 Nordeste 42 Este 0 -- -- 56
2017-09-12 06:00:00 18.4 5 Sur 21 Nordeste 0 -- -- 59
2017-09-12 05:00:00 19.1 10 Sudeste 25 Norte 0 -- -- 53
2017-09-12 04:00:00 19.4 6 Norte 37 Nordeste 0 -- -- 51
2017-09-12 03:00:00 20 15 Norte 35 Norte 0 -- -- 49
2017-09-12 02:00:00 20.2 14 Norte 30 Norte 0 -- -- 50
2017-09-12 01:00:00 20 0 Calma 12 Nordeste 0 -- -- 56
2017-09-12 00:00:00 20.5 8 Norte 19 Este 0 -- -- 53
2017-09-11 23:00:00 20 6 Sudoeste 15 Norte 0 -- -- 56
2017-09-11 22:00:00 20.4 6 Este 24 Nordeste 0 -- -- 52
2017-09-11 21:00:00 21 17 Norte 29 Norte 0 -- -- 54
2017-09-11 20:00:00 21.9 8 Norte 31 Norte 0 -- -- 50
2017-09-11 19:00:00 22.4 9 Norte 37 Norte 0 -- -- 49
2017-09-11 18:00:00 23.3 17 Norte 33 Norte 0 -- -- 48
2017-09-11 17:00:00 24.9 21 Nordeste 42 Norte 0 -- -- 47
2017-09-11 16:00:00 24.5 24 Norte 44 Norte 0 -- -- 47
2017-09-11 15:00:00 24.9 26 Norte 45 Norte 0 -- -- 47
2017-09-11 14:00:00 23.8 15 Norte 44 Noroeste 0 -- -- 51
2017-09-11 13:00:00 23.3 22 Norte 38 Nordeste 0 -- -- 55
2017-09-11 12:00:00 22.9 5 Oeste 17 Sudoeste 0 -- -- 59
2017-09-11 11:00:00 21.4 13 Norte 25 Norte 0 -- -- 63
2017-09-11 10:00:00 18.9 4 Sudoeste 10 Nordeste 0 -- -- 66
2017-09-11 09:00:00 16.8 0 Calma 15 Nordeste 0 -- -- 72
2017-09-11 08:00:00 14.7 3 Norte 21 Nordeste 0 -- -- 75
2017-09-11 07:00:00 14.2 8 Nordeste 22 Nordeste 0 -- -- 75
2017-09-11 06:00:00 14.3 5 Nordeste 16 Nordeste 0 -- -- 73
2017-09-11 05:00:00 14.8 12 Nordeste 18 Nordeste 0 -- -- 69
2017-09-11 04:00:00 15.2 3 Norte 12 Nordeste 0 -- -- 69
2017-09-11 03:00:00 16.5 2 Nordeste 8 Sudoeste 0 -- -- 64
2017-09-11 02:00:00 17.8 3 Este 19 Norte 0 -- -- 56
2017-09-11 01:00:00 19 8 Norte 24 Norte 0 -- -- 48
2017-09-11 00:00:00 18.3 7 Sudoeste 25 Norte 0 -- -- 52
2017-09-10 23:00:00 19.8 16 Norte 44 Norte 0 -- -- 45
2017-09-10 22:00:00 20 21 Norte 50 Norte 0 -- -- 45
2017-09-10 21:00:00 19.5 19 Norte 37 Norte 0 -- -- 48
2017-09-10 20:00:00 20.2 21 Norte 35 Noroeste 0 -- -- 46
2017-09-10 19:00:00 21.6 10 Norte 40 Norte 0 -- -- 43
2017-09-10 18:00:00 22.4 17 Norte 54 Norte 0 -- -- 43
2017-09-10 17:00:00 22.7 19 Norte 42 Noroeste 0 -- -- 42
2017-09-10 16:00:00 22.9 12 Noroeste 57 Norte 0 -- -- 41
2017-09-10 15:00:00 22.4 24 Norte 60 Nordeste 0 -- -- 40
2017-09-10 14:00:00 21.7 27 Norte 63 Norte 0 -- -- 42
2017-09-10 13:00:00 20.8 29 Norte 57 Nordeste 0 -- -- 46
2017-09-10 12:00:00 19.3 30 Norte 63 Norte 0 -- -- 51
2017-09-10 11:00:00 18.1 25 Norte 55 Noroeste 0 -- -- 53
2017-09-10 10:00:00 17 20 Norte 49 Nordeste 0 -- -- 56
2017-09-10 09:00:00 16.5 18 Oeste 46 Sudeste 0 -- -- 54
2017-09-10 08:00:00 16 12 Sudeste 37 Nordeste 0 -- -- 55
2017-09-10 07:00:00 15.6 10 Sudeste 28 Sudeste 0 -- -- 53
2017-09-10 06:00:00 16.2 17 Norte 52 Norte 0 -- -- 53
2017-09-10 05:00:00 16.7 29 Noroeste 63 Norte 0 -- -- 50
2017-09-10 04:00:00 17.3 36 Norte 69 Norte 0 -- -- 47
2017-09-10 03:00:00 17.3 33 Norte 70 Norte 0 -- -- 48
2017-09-10 02:00:00 17.9 36 Norte 60 Norte 0 -- -- 44
2017-09-10 01:00:00 17.9 27 Norte 59 Norte 0 -- -- 49
2017-09-10 00:00:00 17.4 25 Norte 45 Norte 0 -- -- 53
2017-09-09 23:00:00 16.8 28 Nordeste 50 Nordeste 0 -- -- 59
2017-09-09 22:00:00 15.1 14 Nordeste 29 Norte 0 -- -- 73
2017-09-09 21:00:00 13.1 7 Sudeste 14 Sudeste 0 -- -- 94
2017-09-09 20:00:00 13.9 0 Calma 7 Este 0 -- -- 92
2017-09-09 19:00:00 13.8 3 Sudeste 12 Sur 0.8 -- -- 92
2017-09-09 18:00:00 14.3 5 Este 15 Este 1 -- -- 86
2017-09-09 17:00:00 15 7 Sur 46 Norte 0.6 -- -- 80
2017-09-09 16:00:00 16.8 8 Norte 44 Nordeste 0.4 -- -- 60
2017-09-09 15:00:00 15.2 20 Norte 50 Norte 4.2 -- -- 72
2017-09-09 14:00:00 15 28 Norte 84 Norte 1.2 -- -- 75
2017-09-09 13:00:00 16.4 37 Norte 91 Norte 0.2 -- -- 64
2017-09-09 12:00:00 17.7 15 Nordeste 33 Nordeste 4.2 -- -- 82
2017-09-09 11:00:00 19.3 0 Calma 13 Oeste 0.6 -- -- 80
2017-09-09 10:00:00 18.8 4 Oeste 9 Noroeste 0 -- -- 74
2017-09-09 09:00:00 17.6 2 Este 10 Sur 0 -- -- 79
2017-09-09 08:00:00 17.7 6 Nordeste 20 Nordeste 0 -- -- 75
2017-09-09 07:00:00 15.9 6 Norte 9 Norte 0 -- -- 86
2017-09-09 06:00:00 16.1 0 Calma 17 Nordeste 0 -- -- 86
2017-09-09 05:00:00 15.9 5 Nordeste 15 Nordeste 0 -- -- 88
2017-09-09 04:00:00 15.6 4 Nordeste 10 Nordeste 0 -- -- 89
2017-09-09 03:00:00 15.8 6 Nordeste 10 Nordeste 0 -- -- 88
2017-09-09 02:00:00 16.6 7 Nordeste 15 Nordeste 0 -- -- 85
2017-09-09 01:00:00 16.9 5 Norte 13 Nordeste 0 -- -- 83
2017-09-09 00:00:00 17.6 6 Nordeste 10 Nordeste 0 -- -- 82
2017-09-08 23:00:00 18 3 Nordeste 5 Nordeste 0 -- -- 80
2017-09-08 22:00:00 19.7 0 Calma 12 Sudeste 0 -- -- 74
2017-09-08 21:00:00 20.5 6 Este 10 Este 0 -- -- 70
2017-09-08 20:00:00 21.2 5 Nordeste 15 Este 0 -- -- 68
2017-09-08 19:00:00 21.8 7 Sur 27 Sur 0 -- -- 64
2017-09-08 18:00:00 23 15 Sur 27 Sur 0 -- -- 55
2017-09-08 17:00:00 25.2 14 Sur 36 Sur 0 -- -- 48
2017-09-08 16:00:00 26.3 13 Sur 29 Sur 0 -- -- 43
2017-09-08 15:00:00 26.8 8 Oeste 22 Oeste 0 -- -- 41
2017-09-08 14:00:00 25.8 13 Oeste 20 Oeste 0 -- -- 44
2017-09-08 13:00:00 25.1 5 Oeste 20 Oeste 0 -- -- 45
2017-09-08 12:00:00 24.2 8 Noroeste 18 Noroeste 0 -- -- 46
2017-09-08 11:00:00 22.8 5 Sur 10 Sudoeste 0 -- -- 45
2017-09-08 10:00:00 20.7 5 Sudoeste 8 Sudoeste 0 -- -- 48
2017-09-08 09:00:00 17.6 0 Calma 9 Nordeste 0 -- -- 57
2017-09-08 08:00:00 14.5 8 Nordeste 10 Nordeste 0 -- -- 66
2017-09-08 07:00:00 15.1 0 Calma 9 Sur 0 -- -- 64
2017-09-08 06:00:00 15.4 5 Sudoeste 12 Sudoeste 0 -- -- 64
2017-09-08 05:00:00 17.1 6 Este 16 Norte 0 -- -- 58
2017-09-08 04:00:00 19.4 8 Nordeste 28 Norte 0 -- -- 51
2017-09-08 03:00:00 19.1 15 Norte 30 Norte 0 -- -- 50
2017-09-08 02:00:00 18 10 Norte 31 Noroeste 0 -- -- 51
2017-09-08 01:00:00 19.4 11 Noroeste 33 Noroeste 0 -- -- 48
2017-09-08 00:00:00 18.4 6 Norte 17 Noroeste 0 -- -- 50
2017-09-07 23:00:00 18.9 5 Nordeste 21 Nordeste 0 -- -- 48
2017-09-07 22:00:00 20.1 13 Nordeste 24 Este 0 -- -- 46
2017-09-07 21:00:00 21.3 11 Norte 41 Norte 0 -- -- 42
2017-09-07 20:00:00 21.6 18 Norte 42 Nordeste 0 -- -- 44
2017-09-07 19:00:00 23.1 22 Norte 40 Norte 0 -- -- 41
2017-09-07 18:00:00 25.3 18 Norte 39 Norte 0 -- -- 36
2017-09-07 17:00:00 26.5 14 Norte 39 Norte 0 -- -- 36
2017-09-07 16:00:00 27.1 17 Norte 28 Nordeste 0 -- -- 35
2017-09-07 15:00:00 26.8 19 Norte 36 Nordeste 0 -- -- 35
2017-09-07 14:00:00 26 12 Nordeste 30 Nordeste 0 -- -- 35
2017-09-07 13:00:00 24.8 16 Norte 33 Norte 0 -- -- 37
2017-09-07 12:00:00 24.5 9 Norte 27 Nordeste 0 -- -- 38
2017-09-07 11:00:00 23.5 8 Este 19 Nordeste 0 -- -- 39
2017-09-07 10:00:00 21.6 6 Sur 11 Sur 0 -- -- 44
2017-09-07 09:00:00 19 6 Norte 17 Noroeste 0 -- -- 51
2017-09-07 08:00:00 15 6 Sur 14 Sur 0 -- -- 71
2017-09-07 07:00:00 13.9 4 Nordeste 8 Nordeste 0 -- -- 77
2017-09-07 06:00:00 14.8 2 Norte 8 Norte 0 -- -- 73
2017-09-07 05:00:00 16.4 4 Norte 7 Oeste 0 -- -- 68
2017-09-07 04:00:00 18.8 5 Este 12 Sudeste 0 -- -- 59
2017-09-07 03:00:00 19.9 6 Este 21 Norte 0 -- -- 55
2017-09-07 02:00:00 20.8 13 Nordeste 35 Nordeste 0 -- -- 53
2017-09-07 01:00:00 20.7 17 Norte 32 Norte 0 -- -- 55
2017-09-07 00:00:00 21.1 16 Nordeste 43 Norte 0 -- -- 54
2017-09-06 23:00:00 21.9 24 Norte 57 Norte 0 -- -- 52
2017-09-06 22:00:00 22.2 24 Norte 45 Norte 0 -- -- 53
2017-09-06 21:00:00 22.7 25 Norte 44 Norte 0 -- -- 53
2017-09-06 20:00:00 23.2 23 Norte 45 Norte 0 -- -- 53
2017-09-06 19:00:00 24.9 17 Nordeste 35 Norte 0 -- -- 50
2017-09-06 18:00:00 27.8 8 Nordeste 27 Norte 0 -- -- 46
2017-09-06 17:00:00 26.9 15 Norte 26 Norte 0 -- -- 49
2017-09-06 16:00:00 26.9 11 Norte 28 Norte 0 -- -- 49
2017-09-06 15:00:00 27 10 Noroeste 23 Nordeste 0 -- -- 47
2017-09-06 14:00:00 26.8 12 Norte 22 Nordeste 0 -- -- 48
2017-09-06 13:00:00 25.5 6 Nordeste 31 Norte 0 -- -- 52
2017-09-06 12:00:00 25 11 Norte 40 Norte 0 -- -- 54
2017-09-06 11:00:00 23.7 23 Norte 50 Norte 0 -- -- 56
2017-09-06 10:00:00 23 30 Norte 50 Norte 0 -- -- 57
2017-09-06 09:00:00 22.9 24 Norte 46 Norte 0 -- -- 60
2017-09-06 08:00:00 22.5 22 Norte 51 Norte 0 -- -- 62
2017-09-06 07:00:00 22.7 17 Norte 32 Nordeste 0 -- -- 63
2017-09-06 06:00:00 23.3 10 Nordeste 27 Norte 0 -- -- 63
2017-09-06 05:00:00 22.8 3 Sudeste 12 Noroeste 0 -- -- 64
2017-09-06 04:00:00 24.1 4 Sudoeste 23 Norte 0 -- -- 60
2017-09-06 03:00:00 24.2 5 Sur 15 Este 0 -- -- 63
2017-09-06 02:00:00 24.6 5 Sudeste 17 Norte 0 -- -- 61
2017-09-06 01:00:00 25.1 8 Norte 42 Norte 0 -- -- 58
2017-09-06 00:00:00 26 5 Norte 14 Nordeste 0 -- -- 56
2017-09-05 23:00:00 26.4 9 Norte 18 Noroeste 0 -- -- 55
2017-09-05 22:00:00 26.3 10 Nordeste 15 Nordeste 0 -- -- 55
2017-09-05 21:00:00 26.7 4 Nordeste 10 Sur 0 -- -- 57
2017-09-05 20:00:00 27.8 5 Sudoeste 12 Sudoeste 0 -- -- 55
2017-09-05 19:00:00 28.9 5 Sur 22 Sur 0 -- -- 50
2017-09-05 18:00:00 29.4 15 Sur 28 Sur 0 -- -- 47
2017-09-05 17:00:00 30.9 15 Sur 26 Sur 0 -- -- 45
2017-09-05 16:00:00 30.8 13 Sudeste 26 Sudeste 0 -- -- 44
2017-09-05 15:00:00 31 17 Sudeste 29 Sur 0 -- -- 43
2017-09-05 14:00:00 30.8 10 Sudeste 21 Sur 0 -- -- 43
2017-09-05 13:00:00 29.7 9 Sur 21 Sur 0 -- -- 44
2017-09-05 12:00:00 28.7 8 Sudeste 17 Sur 0 -- -- 46
2017-09-05 11:00:00 27.2 8 Sur 15 Sur 0 -- -- 50
2017-09-05 10:00:00 25.5 3 Sur 7 Sur 0 -- -- 56
2017-09-05 09:00:00 22.1 4 Nordeste 9 Nordeste 0 -- -- 66
2017-09-05 08:00:00 18.4 5 Norte 14 Nordeste 0 -- -- 78
2017-09-05 07:00:00 18 6 Nordeste 12 Nordeste 0 -- -- 79
2017-09-05 06:00:00 18.2 8 Nordeste 12 Nordeste 0 -- -- 78
2017-09-05 05:00:00 18 3 Nordeste 10 Nordeste 0 -- -- 79
2017-09-05 04:00:00 18 3 Norte 9 Nordeste 0 -- -- 78
2017-09-05 03:00:00 18.2 3 Nordeste 9 Nordeste 0 -- -- 77
2017-09-05 02:00:00 18.5 5 Norte 10 Nordeste 0 -- -- 75
2017-09-05 01:00:00 19 5 Nordeste 13 Nordeste 0 -- -- 73
2017-09-05 00:00:00 19 0 Calma 10 Norte 0 -- -- 72
2017-09-04 23:00:00 19.4 4 Nordeste 9 Nordeste 0 -- -- 70
2017-09-04 22:00:00 20 3 Norte 11 Nordeste 0 -- -- 68
2017-09-04 21:00:00 21.2 3 Norte 5 Sur 0 -- -- 64
2017-09-04 20:00:00 23.5 4 Sur 11 Sur 0 -- -- 57
2017-09-04 19:00:00 24.9 5 Sur 18 Sur 0 -- -- 53
2017-09-04 18:00:00 26.2 13 Sudoeste 22 Sudoeste 0 -- -- 50
2017-09-04 17:00:00 28.1 14 Sudoeste 24 Sur 0 -- -- 45
2017-09-04 16:00:00 28 14 Sudeste 30 Sur 0 -- -- 45
2017-09-04 15:00:00 28 12 Sudeste 29 Sudeste 0 -- -- 44
2017-09-04 14:00:00 27.8 14 Sur 24 Sur 0 -- -- 44
2017-09-04 13:00:00 27.4 10 Sur 23 Sur 0 -- -- 44
2017-09-04 12:00:00 25.7 5 Este 13 Sudoeste 0 -- -- 48
2017-09-04 11:00:00 23 4 Oeste 10 Nordeste 0 -- -- 57
2017-09-04 10:00:00 19.3 0 Calma 14 Nordeste 0 -- -- 79
2017-09-04 09:00:00 17.7 4 Nordeste 8 Nordeste 0.2 -- -- 80
2017-09-04 08:00:00 19.1 4 Oeste 10 Nordeste 0 -- -- 65
2017-09-04 07:00:00 20.1 9 Nordeste 16 Nordeste 0 -- -- 55
2017-09-04 06:00:00 18.7 5 Norte 12 Norte 0 -- -- 62
2017-09-04 05:00:00 18 4 Nordeste 6 Nordeste 0 -- -- 69
2017-09-04 04:00:00 18.8 4 Norte 11 Norte 0 -- -- 65
2017-09-04 03:00:00 18.8 2 Norte 6 Nordeste 0 -- -- 66
2017-09-04 02:00:00 18.7 3 Este 6 Nordeste 0 -- -- 67
2017-09-04 01:00:00 19.1 0 Calma 10 Nordeste 0 -- -- 65
2017-09-04 00:00:00 19.5 3 Nordeste 9 Este 0 -- -- 60
2017-09-03 23:00:00 19.4 5 Norte 9 Nordeste 0 -- -- 60
2017-09-03 22:00:00 19.7 3 Nordeste 5 Norte 0 -- -- 59
2017-09-03 21:00:00 20.4 2 Nordeste 5 Sudoeste 0 -- -- 55
2017-09-03 20:00:00 21.1 4 Sur 10 Sur 0 -- -- 51
2017-09-03 19:00:00 21.9 8 Sur 15 Sur 0 -- -- 47
2017-09-03 18:00:00 23.8 9 Sur 18 Sur 0 -- -- 45
2017-09-03 17:00:00 23.3 9 Sudoeste 22 Sur 0 -- -- 45
2017-09-03 16:00:00 24.1 13 Sur 22 Sur 0 -- -- 44
2017-09-03 15:00:00 24.2 11 Sur 17 Sur 0 -- -- 45
2017-09-03 14:00:00 24.2 10 Sudeste 24 Sur 0 -- -- 43
2017-09-03 13:00:00 24.9 6 Sur 20 Sur 0 -- -- 43
2017-09-03 12:00:00 24.5 6 Sur 13 Sur 0 -- -- 43
2017-09-03 11:00:00 23.3 5 Sur 9 Sur 0 -- -- 40
2017-09-03 10:00:00 21 4 Sur 7 Sur 0 -- -- 44
2017-09-03 09:00:00 17.8 0 Calma 4 Nordeste 0 -- -- 55
2017-09-03 08:00:00 15.3 2 Este 10 Este 0 -- -- 65
2017-09-03 07:00:00 16.2 4 Nordeste 9 Norte 0 -- -- 60
2017-09-03 06:00:00 16.6 3 Norte 8 Este 0 -- -- 58
2017-09-03 05:00:00 16.6 2 Sudoeste 10 Norte 0 -- -- 60
2017-09-03 04:00:00 17.6 3 Sudeste 10 Sudoeste 0 -- -- 54
2017-09-03 03:00:00 18.2 3 Sur 17 Noroeste 0 -- -- 51
2017-09-03 02:00:00 19.9 9 Norte 42 Norte 0 -- -- 46
2017-09-03 01:00:00 20.3 19 Norte 47 Norte 0 -- -- 46
2017-09-03 00:00:00 20.4 22 Norte 46 Norte 0 -- -- 45
2017-09-02 23:00:00 20.4 21 Norte 45 Norte 0 -- -- 46
2017-09-02 22:00:00 21 20 Norte 46 Norte 0 -- -- 44
2017-09-02 21:00:00 21.5 29 Norte 47 Nordeste 0 -- -- 43
2017-09-02 20:00:00 22.1 26 Norte 53 Nordeste 0 -- -- 41
2017-09-02 19:00:00 23.8 27 Norte 53 Nordeste 0 -- -- 37
2017-09-02 18:00:00 25 32 Norte 68 Norte 0 -- -- 34
2017-09-02 17:00:00 26 35 Norte 60 Norte 0 -- -- 28
2017-09-02 16:00:00 26 30 Norte 53 Norte 0 -- -- 29
2017-09-02 15:00:00 25.8 25 Norte 58 Norte 0 -- -- 32
2017-09-02 14:00:00 24.5 32 Norte 61 Norte 0 -- -- 34
2017-09-02 13:00:00 23.4 26 Norte 51 Nordeste 0 -- -- 37
2017-09-02 12:00:00 22.5 20 Norte 57 Noroeste 0 -- -- 37
2017-09-02 11:00:00 21.2 28 Norte 61 Norte 0 -- -- 43
2017-09-02 10:00:00 20.1 29 Norte 54 Norte 0 -- -- 43
2017-09-02 09:00:00 18.8 19 Norte 46 Norte 0 -- -- 47
2017-09-02 08:00:00 17.7 26 Norte 51 Norte 0 -- -- 52
2017-09-02 07:00:00 17 32 Norte 70 Norte 0 -- -- 56
2017-09-02 06:00:00 17.4 44 Norte 71 Norte 0 -- -- 55
2017-09-02 05:00:00 17.7 35 Norte 69 Norte 0 -- -- 54
2017-09-02 04:00:00 18.1 34 Norte 76 Norte 0 -- -- 56
2017-09-02 03:00:00 18.8 33 Norte 59 Norte 0.2 -- -- 53
2017-09-02 02:00:00 18.2 26 Norte 49 Norte 1.4 -- -- 58
2017-09-02 01:00:00 18.4 23 Norte 51 Norte 0.2 -- -- 61
2017-09-02 00:00:00 19.7 26 Norte 49 Norte 0 -- -- 52
2017-09-01 23:00:00 20.3 23 Norte 54 Norte 0 -- -- 49
2017-09-01 22:00:00 21.5 23 Norte 54 Norte 0 -- -- 45
2017-09-01 21:00:00 22 25 Norte 49 Norte 0 -- -- 41
2017-09-01 20:00:00 22.7 22 Norte 42 Norte 0 -- -- 39
2017-09-01 19:00:00 23.5 20 Norte 39 Norte 0 -- -- 36
2017-09-01 18:00:00 24.6 21 Norte 40 Norte 0 -- -- 35
2017-09-01 17:00:00 24 19 Norte 40 Norte 0 -- -- 36
2017-09-01 16:00:00 23.4 18 Norte 40 Norte 0 -- -- 40
2017-09-01 15:00:00 23.5 14 Norte 40 Norte 0 -- -- 44
2017-09-01 14:00:00 24.7 21 Norte 38 Norte 0 -- -- 40
2017-09-01 13:00:00 22.2 21 Norte 41 Norte 0 -- -- 44
2017-09-01 12:00:00 21 24 Norte 42 Norte 0 -- -- 47
2017-09-01 11:00:00 20.3 23 Norte 44 Norte 0 -- -- 49
2017-09-01 10:00:00 19.9 20 Norte 36 Norte 0 -- -- 51
2017-09-01 09:00:00 19.5 18 Norte 46 Norte 0 -- -- 51
2017-09-01 08:00:00 19.2 13 Norte 35 Norte 0 -- -- 53
2017-09-01 07:00:00 19.2 19 Norte 45 Norte 0 -- -- 54
2017-09-01 06:00:00 19 20 Norte 48 Norte 0 -- -- 59
2017-09-01 05:00:00 19 29 Norte 49 Norte 0 -- -- 59
2017-09-01 04:00:00 19 20 Norte 46 Norte 0 -- -- 59
2017-09-01 03:00:00 19.3 20 Norte 37 Norte 0 -- -- 60
2017-09-01 02:00:00 18.9 17 Norte 32 Norte 0 -- -- 64
2017-09-01 01:00:00 15.5 5 Nordeste 16 Nordeste 0 -- -- 88
2017-09-01 00:00:00 14.6 2 Este 9 Noroeste 0 -- -- 93
2017-08-31 23:00:00 15.2 2 Sudeste 6 Sur 0 -- -- 92
2017-08-31 22:00:00 16.1 2 Este 7 Norte 0 -- -- 92
2017-08-31 21:00:00 16.8 4 Nordeste 6 Nordeste 0 -- -- 93
2017-08-31 20:00:00 16.7 0 Calma 10 Este 0.2 -- -- 91
2017-08-31 19:00:00 16.6 4 Norte 12 Este 3.4 -- -- 89
2017-08-31 18:00:00 17.4 7 Norte 15 Nordeste 1.8 -- -- 88
2017-08-31 17:00:00 19.4 4 Norte 21 Norte 0 -- -- 70
2017-08-31 16:00:00 19 9 Nordeste 21 Nordeste 0 -- -- 76
2017-08-31 15:00:00 20.8 10 Nordeste 15 Nordeste 0 -- -- 67
2017-08-31 14:00:00 21 6 Este 18 Nordeste 0.2 -- -- 69
2017-08-31 13:00:00 23 10 Norte 17 Norte 0 -- -- 57
2017-08-31 12:00:00 22.1 4 Sur 17 Nordeste 0.2 -- -- 75
2017-08-31 11:00:00 19.9 9 Nordeste 13 Este 1.4 -- -- 83
2017-08-31 10:00:00 20.2 2 Sudoeste 10 Sudoeste 0 -- -- 85
2017-08-31 09:00:00 19.5 3 Oeste 13 Nordeste 0 -- -- 84
2017-08-31 08:00:00 18.8 11 Nordeste 23 Nordeste 0.4 -- -- 84
2017-08-31 07:00:00 20.5 14 Nordeste 21 Nordeste 0.2 -- -- 72
2017-08-31 06:00:00 21.1 6 Nordeste 8 Nordeste 0 -- -- 75
2017-08-31 05:00:00 22.7 2 Sudoeste 11 Sudoeste 0 -- -- 57
2017-08-31 04:00:00 23.7 5 Sur 18 Nordeste 0 -- -- 52
2017-08-31 03:00:00 24 5 Nordeste 20 Norte 0 -- -- 54
2017-08-31 02:00:00 23.4 11 Nordeste 16 Nordeste 0 -- -- 53
2017-08-31 01:00:00 24.3 4 Este 15 Sudoeste 0 -- -- 51
2017-08-31 00:00:00 25.4 8 Sudoeste 19 Sudoeste 0 -- -- 46
2017-08-30 23:00:00 25.1 10 Sudoeste 17 Sudoeste 0 -- -- 51
2017-08-30 22:00:00 26.7 6 Sudoeste 17 Sudoeste 0 -- -- 45
2017-08-30 21:00:00 28.3 10 Sudoeste 29 Sudoeste 0 -- -- 41
2017-08-30 20:00:00 29.9 17 Sudoeste 40 Sudoeste 0 -- -- 39
2017-08-30 19:00:00 32.2 18 Sudoeste 39 Sudoeste 0 -- -- 34
2017-08-30 18:00:00 33.8 24 Sudoeste 47 Oeste 0 -- -- 32
2017-08-30 17:00:00 35 23 Oeste 44 Sur 0 -- -- 30
2017-08-30 16:00:00 34.9 22 Sur 38 Oeste 0 -- -- 31
2017-08-30 15:00:00 34.5 20 Sudoeste 33 Sudoeste 0 -- -- 30
2017-08-30 14:00:00 32.1 20 Sur 36 Sudoeste 0 -- -- 39
2017-08-30 13:00:00 32.5 17 Sur 30 Sur 0 -- -- 34
2017-08-30 12:00:00 30.4 13 Sur 22 Sur 0 -- -- 39
2017-08-30 11:00:00 27.5 9 Sudoeste 17 Sur 0 -- -- 47
2017-08-30 10:00:00 25.3 4 Este 10 Este 0 -- -- 56
2017-08-30 09:00:00 23.8 3 Este 7 Norte 0 -- -- 64
2017-08-30 08:00:00 20.8 3 Sur 14 Nordeste 0 -- -- 81
2017-08-30 07:00:00 19.6 7 Nordeste 10 Nordeste 0 -- -- 86
2017-08-30 06:00:00 19.8 0 Calma 7 Nordeste 0 -- -- 86
2017-08-30 05:00:00 20 4 Nordeste 8 Nordeste 0 -- -- 83
2017-08-30 04:00:00 19.8 3 Nordeste 9 Nordeste 0 -- -- 83
2017-08-30 03:00:00 20.7 0 Calma 12 Nordeste 0 -- -- 81
2017-08-30 02:00:00 21.5 0 Calma 13 Nordeste 0 -- -- 78
2017-08-30 01:00:00 22.3 7 Nordeste 13 Nordeste 0 -- -- 76
2017-08-30 00:00:00 22.6 5 Nordeste 8 Nordeste 0 -- -- 76
2017-08-29 23:00:00 23.7 4 Nordeste 9 Nordeste 0 -- -- 77
2017-08-29 22:00:00 24.8 3 Nordeste 9 Norte 0 -- -- 75
2017-08-29 21:00:00 26.8 0 Calma 7 Sur 0 -- -- 69
2017-08-29 20:00:00 28.7 4 Sudoeste 9 Sudoeste 0 -- -- 64
2017-08-29 19:00:00 29.3 5 Sudoeste 14 Oeste 0 -- -- 63
2017-08-29 18:00:00 30.7 9 Sur 18 Sudoeste 0 -- -- 58
2017-08-29 17:00:00 30.9 10 Sudeste 22 Este 0 -- -- 57
2017-08-29 16:00:00 30.6 9 Sur 23 Sudoeste 0 -- -- 58
2017-08-29 15:00:00 31.1 13 Sur 24 Sur 0 -- -- 56
2017-08-29 14:00:00 31.5 14 Sur 23 Sur 0 -- -- 53
2017-08-29 13:00:00 30.2 7 Oeste 22 Sudeste 0 -- -- 55
2017-08-29 12:00:00 28.8 9 Sudoeste 20 Sur 0 -- -- 59
2017-08-29 11:00:00 27.7 7 Sur 13 Sudoeste 0 -- -- 63
2017-08-29 10:00:00 25.8 5 Sur 10 Sudoeste 0 -- -- 70
2017-08-29 09:00:00 23.8 2 Este 12 Nordeste 0 -- -- 76
2017-08-29 08:00:00 21.9 8 Nordeste 15 Este 0 -- -- 79
2017-08-29 07:00:00 21.5 9 Nordeste 13 Nordeste 0 -- -- 77
2017-08-29 06:00:00 21.3 3 Nordeste 10 Nordeste 0 -- -- 79
2017-08-29 05:00:00 22.2 10 Nordeste 15 Nordeste 0 -- -- 76
2017-08-29 04:00:00 22.1 0 Calma 14 Nordeste 0 -- -- 77
2017-08-29 03:00:00 22.8 7 Nordeste 11 Nordeste 0 -- -- 74
2017-08-29 02:00:00 22.4 4 Nordeste 12 Nordeste 0 -- -- 74
2017-08-29 01:00:00 23.5 3 Norte 8 Nordeste 0 -- -- 70
2017-08-29 00:00:00 22.5 4 Nordeste 8 Nordeste 0 -- -- 77
2017-08-28 23:00:00 22.8 0 Calma 9 Nordeste 0 -- -- 77
2017-08-28 22:00:00 23.7 0 Calma 5 Nordeste 0 -- -- 78
2017-08-28 21:00:00 25 0 Calma 8 Sudoeste 0 -- -- 75
2017-08-28 20:00:00 26.5 4 Sudoeste 7 Sudoeste 0 -- -- 70
2017-08-28 19:00:00 27.3 3 Sur 17 Sur 0 -- -- 64
2017-08-28 18:00:00 29.4 9 Sur 19 Sudoeste 0 -- -- 57
2017-08-28 17:00:00 30.1 14 Sudoeste 24 Sudoeste 0 -- -- 57
2017-08-28 16:00:00 31.6 14 Sudoeste 24 Sudoeste 0 -- -- 54
2017-08-28 15:00:00 32.6 13 Sur 21 Sur 0 -- -- 50
2017-08-28 14:00:00 31.6 9 Sur 22 Sur 0 -- -- 52
2017-08-28 13:00:00 31.3 12 Sur 19 Sur 0 -- -- 53
2017-08-28 12:00:00 29.7 8 Sur 15 Sur 0 -- -- 57
2017-08-28 11:00:00 27.6 5 Sudoeste 12 Sudoeste 0 -- -- 67
2017-08-28 10:00:00 24.8 5 Sudoeste 11 Sudoeste 0 -- -- 80
2017-08-28 09:00:00 22.2 3 Sur 8 Nordeste 0 -- -- 83
2017-08-28 08:00:00 19.4 5 Nordeste 7 Nordeste 0 -- -- 81
2017-08-28 07:00:00 19.3 4 Norte 13 Nordeste 0 -- -- 81
2017-08-28 06:00:00 19.4 3 Nordeste 10 Nordeste 0 -- -- 85
2017-08-28 05:00:00 20.2 6 Nordeste 10 Norte 0 -- -- 86
2017-08-28 04:00:00 21 6 Nordeste 11 Norte 0 -- -- 89
2017-08-28 03:00:00 21.9 3 Nordeste 7 Oeste 0 -- -- 89
2017-08-28 02:00:00 23.3 0 Calma 7 Nordeste 0 -- -- 88
2017-08-28 01:00:00 23.3 0 Calma 7 Noroeste 0 -- -- 89
2017-08-28 00:00:00 23.4 3 Sudoeste 25 Sur 0 -- -- 88
2017-08-27 23:00:00 23.8 5 Sudoeste 18 Nordeste 0 -- -- 82
2017-08-27 22:00:00 23.2 4 Nordeste 6 Sudoeste 0 -- -- 89
2017-08-27 21:00:00 23.3 0 Calma 10 Sudeste 0 -- -- 88
2017-08-27 20:00:00 24.3 7 Sur 12 Sur 0 -- -- 81
2017-08-27 19:00:00 25.6 8 Sur 15 Sur 0 -- -- 73
2017-08-27 18:00:00 26.5 9 Sudoeste 23 Sur 0 -- -- 67
2017-08-27 17:00:00 28.7 13 Sur 24 Sudoeste 0 -- -- 57
2017-08-27 16:00:00 30.3 13 Sur 22 Sur 0 -- -- 57
2017-08-27 15:00:00 31.1 13 Sur 22 Sur 0 -- -- 54
2017-08-27 14:00:00 30.4 12 Sur 26 Sudoeste 0 -- -- 58
2017-08-27 13:00:00 29.8 7 Sudoeste 15 Sudeste 0 -- -- 56
2017-08-27 12:00:00 28.2 9 Sur 18 Sur 0 -- -- 62
2017-08-27 11:00:00 26.8 5 Noroeste 8 Noroeste 0 -- -- 67
2017-08-27 10:00:00 24.8 4 Norte 16 Nordeste 0 -- -- 76
2017-08-27 09:00:00 24.3 5 Sur 12 Nordeste 0 -- -- 81
2017-08-27 08:00:00 22.1 7 Nordeste 10 Norte 0 -- -- 84
2017-08-27 07:00:00 21 0 Calma 9 Nordeste 0 -- -- 86
2017-08-27 06:00:00 21.3 6 Nordeste 9 Nordeste 0 -- -- 86
2017-08-27 05:00:00 21.7 0 Calma 10 Nordeste 0 -- -- 87
2017-08-27 04:00:00 21.7 9 Nordeste 13 Nordeste 0 -- -- 87
2017-08-27 03:00:00 22.3 8 Nordeste 12 Nordeste 0 -- -- 88
2017-08-27 02:00:00 23.4 2 Este 6 Este 0 -- -- 85
2017-08-27 01:00:00 23.5 0 Calma 6 Sur 0 -- -- 86
2017-08-27 00:00:00 23.8 3 Sudoeste 6 Sudoeste 0 -- -- 86
2017-08-26 23:00:00 23.9 0 Calma 6 Sur 0 -- -- 87
2017-08-26 22:00:00 24.1 5 Sur 14 Sudeste 0 -- -- 86
2017-08-26 21:00:00 24.5 5 Sudoeste 14 Sudeste 0 -- -- 85
2017-08-26 20:00:00 25.7 8 Sur 16 Sur 0 -- -- 80
2017-08-26 19:00:00 26.7 11 Sur 19 Sur 0 -- -- 75
2017-08-26 18:00:00 27.7 12 Sur 26 Sur 0 -- -- 70
2017-08-26 17:00:00 28.5 14 Sur 28 Sur 0 -- -- 67
2017-08-26 16:00:00 28.5 19 Sur 34 Sur 0 -- -- 64
2017-08-26 15:00:00 29 19 Sur 36 Sur 0 -- -- 61
2017-08-26 14:00:00 29.3 15 Sur 25 Sur 0 -- -- 63
2017-08-26 13:00:00 28.3 10 Sur 21 Sudoeste 0 -- -- 66
2017-08-26 12:00:00 27.6 9 Sur 18 Sur 0 -- -- 67
2017-08-26 11:00:00 26.1 5 Sur 12 Sur 0 -- -- 73
2017-08-26 10:00:00 25.2 2 Oeste 4 Sudoeste 0 -- -- 77
2017-08-26 09:00:00 24 0 Calma 4 Sur 0 -- -- 82
2017-08-26 08:00:00 22.6 0 Calma 4 Norte 0 -- -- 87
2017-08-26 07:00:00 22.5 0 Calma 4 Oeste 0 -- -- 88
2017-08-26 06:00:00 22.9 2 Oeste 6 Este 0 -- -- 88
2017-08-26 05:00:00 23.1 0 Calma 4 Nordeste 0 -- -- 87
2017-08-26 04:00:00 23.2 3 Este 9 Sudeste 0 -- -- 88
2017-08-26 03:00:00 23.4 0 Calma 4 Noroeste 0 -- -- 87
2017-08-26 02:00:00 23.3 0 Calma 6 Sudoeste 0 -- -- 88
2017-08-26 01:00:00 23.1 3 Nordeste 7 Este 0 -- -- 91
2017-08-26 00:00:00 23.1 4 Este 8 Sur 0 -- -- 91
2017-08-25 23:00:00 23.7 4 Sudoeste 14 Sur 0 -- -- 90
2017-08-25 22:00:00 23.7 6 Sur 15 Sudeste 0 -- -- 88
2017-08-25 21:00:00 24.4 8 Sur 27 Sur 0 -- -- 83
2017-08-25 20:00:00 25.2 17 Sudeste 30 Sur 0 -- -- 79
2017-08-25 19:00:00 26.6 18 Sur 35 Sudeste 0 -- -- 73
2017-08-25 18:00:00 27.8 20 Sur 34 Sur 0 -- -- 65
2017-08-25 17:00:00 29.9 18 Sur 40 Sur 0 -- -- 56
2017-08-25 16:00:00 31.4 24 Sur 41 Sudeste 0 -- -- 45
2017-08-25 15:00:00 31.3 24 Sur 40 Sudeste 0 -- -- 45
2017-08-25 14:00:00 31.8 23 Sur 40 Sur 0 -- -- 46
2017-08-25 13:00:00 30.5 17 Sur 29 Sur 0 -- -- 55
2017-08-25 12:00:00 28.9 6 Sudeste 19 Sur 0 -- -- 61
2017-08-25 11:00:00 26.5 3 Oeste 13 Oeste 0 -- -- 63
2017-08-25 10:00:00 24.6 5 Sudoeste 15 Sudoeste 0 -- -- 70
2017-08-25 09:00:00 23.2 6 Sudeste 12 Este 0 -- -- 70
2017-08-25 08:00:00 19.9 9 Nordeste 13 Nordeste 0 -- -- 85
2017-08-25 07:00:00 19.8 10 Nordeste 12 Nordeste 0 -- -- 87
2017-08-25 06:00:00 20.8 4 Nordeste 9 Nordeste 0 -- -- 89
2017-08-25 05:00:00 21.8 3 Norte 5 Norte 0 -- -- 89
2017-08-25 04:00:00 22.3 0 Calma 7 Sudoeste 0 -- -- 86
2017-08-25 03:00:00 22.6 3 Oeste 12 Sudoeste 0 -- -- 87
2017-08-25 02:00:00 21.1 0 Calma 12 Nordeste 0 -- -- 86
2017-08-25 01:00:00 21.9 6 Nordeste 11 Nordeste 0 -- -- 82
2017-08-25 00:00:00 22.6 4 Norte 10 Nordeste 0 -- -- 80
2017-08-24 23:00:00 23.2 5 Nordeste 9 Nordeste 0 -- -- 72
2017-08-24 22:00:00 24.8 0 Calma 5 Nordeste 0 -- -- 68
2017-08-24 21:00:00 26.4 4 Sudeste 17 Sudeste 0 -- -- 64
2017-08-24 20:00:00 27.9 5 Sudeste 26 Sur 0 -- -- 60
2017-08-24 19:00:00 29.4 14 Sudeste 29 Sudeste 0 -- -- 56
2017-08-24 18:00:00 30.6 15 Sur 28 Sur 0 -- -- 51
2017-08-24 17:00:00 30.9 13 Sudeste 25 Sur 0 -- -- 50
2017-08-24 16:00:00 31.4 13 Sudeste 25 Sudeste 0 -- -- 51
2017-08-24 15:00:00 30.8 11 Sur 23 Sur 0 -- -- 54
2017-08-24 14:00:00 30.4 13 Sur 24 Sudeste 0 -- -- 49
2017-08-24 13:00:00 30.1 10 Sur 23 Sur 0 -- -- 51
2017-08-24 12:00:00 29.3 6 Sudoeste 15 Sur 0 -- -- 49
2017-08-24 11:00:00 27.7 9 Sudoeste 15 Sudoeste 0 -- -- 56
2017-08-24 10:00:00 26.6 6 Sudoeste 10 Oeste 0 -- -- 57
2017-08-24 09:00:00 23.9 0 Calma 10 Este 0 -- -- 68
2017-08-24 08:00:00 22.2 7 Nordeste 17 Nordeste 0 -- -- 71
2017-08-24 07:00:00 22.2 8 Nordeste 15 Nordeste 0 -- -- 72
2017-08-24 06:00:00 22 10 Nordeste 15 Nordeste 0 -- -- 73
2017-08-24 05:00:00 21.6 5 Nordeste 7 Nordeste 0 -- -- 74
2017-08-24 04:00:00 22.7 0 Calma 12 Nordeste 0 -- -- 71
2017-08-24 03:00:00 22.8 2 Norte 12 Norte 0 -- -- 71
2017-08-24 02:00:00 23 4 Este 18 Nordeste 0 -- -- 71
2017-08-24 01:00:00 23.2 10 Nordeste 13 Nordeste 0 -- -- 71
2017-08-24 00:00:00 23.5 9 Nordeste 15 Nordeste 0 -- -- 71
2017-08-23 23:00:00 23.9 6 Nordeste 10 Nordeste 0 -- -- 72
2017-08-23 22:00:00 25.1 11 Nordeste 17 Nordeste 0 -- -- 69
2017-08-23 21:00:00 26.9 0 Calma 12 Sur 0 -- -- 63
2017-08-23 20:00:00 27.9 7 Sudeste 13 Sudeste 0 -- -- 61
2017-08-23 19:00:00 28.2 6 Sudeste 20 Sudeste 0 -- -- 61
2017-08-23 18:00:00 29.6 12 Sur 28 Sudeste 0 -- -- 57
2017-08-23 17:00:00 29.9 19 Sur 29 Sudeste 0 -- -- 54
2017-08-23 16:00:00 31.4 17 Sur 34 Sur 0 -- -- 49
2017-08-23 15:00:00 31 15 Sur 28 Sur 0 -- -- 51
2017-08-23 14:00:00 30.4 15 Sur 26 Sur 0 -- -- 55
2017-08-23 13:00:00 29.7 14 Sudoeste 26 Sur 0 -- -- 56
2017-08-23 12:00:00 28.9 11 Sudoeste 20 Sudoeste 0 -- -- 58
2017-08-23 11:00:00 27 9 Sur 14 Sur 0 -- -- 65
2017-08-23 10:00:00 24.8 7 Sudoeste 13 Sudoeste 0 -- -- 73
2017-08-23 09:00:00 22.8 5 Este 10 Nordeste 0 -- -- 82
2017-08-23 08:00:00 20.1 9 Nordeste 12 Nordeste 0 -- -- 89
2017-08-23 07:00:00 18.9 4 Este 8 Norte 0 -- -- 90
2017-08-23 06:00:00 20 2 Sur 15 Nordeste 0 -- -- 87
2017-08-23 05:00:00 21.2 10 Nordeste 21 Nordeste 0 -- -- 87
2017-08-23 04:00:00 20.6 9 Nordeste 15 Nordeste 0 -- -- 83
2017-08-23 03:00:00 20.4 7 Nordeste 11 Norte 0 -- -- 81
2017-08-23 02:00:00 20.5 4 Nordeste 9 Nordeste 0 -- -- 80
2017-08-23 01:00:00 21.2 4 Nordeste 12 Nordeste 0 -- -- 77
2017-08-23 00:00:00 21.8 4 Nordeste 9 Nordeste 0 -- -- 76
2017-08-22 23:00:00 22.7 4 Norte 9 Nordeste 0 -- -- 72
2017-08-22 22:00:00 24.4 3 Nordeste 6 Nordeste 0 -- -- 67
2017-08-22 21:00:00 26.3 3 Este 15 Sudeste 0 -- -- 63
2017-08-22 20:00:00 28.1 8 Sudeste 18 Sur 0 -- -- 57
2017-08-22 19:00:00 29.8 10 Sudeste 25 Sudeste 0 -- -- 52
2017-08-22 18:00:00 30.1 16 Sur 29 Sur 0 -- -- 53
2017-08-22 17:00:00 30.9 17 Sur 29 Sur 0 -- -- 52
2017-08-22 16:00:00 31.1 16 Sur 32 Sur 0 -- -- 50
2017-08-22 15:00:00 31.4 13 Sur 25 Sur 0 -- -- 52
2017-08-22 14:00:00 30.4 12 Sur 23 Sur 0 -- -- 52
2017-08-22 13:00:00 30.3 9 Sur 21 Sudeste 0 -- -- 40
2017-08-22 12:00:00 29.2 10 Sur 21 Sur 0 -- -- 33
2017-08-22 11:00:00 28.5 11 Sudoeste 19 Sur 0 -- -- 33
2017-08-22 10:00:00 27.3 3 Sudeste 8 Nordeste 0 -- -- 29
2017-08-22 09:00:00 23.7 4 Nordeste 6 Nordeste 0 -- -- 36
2017-08-22 08:00:00 18.5 4 Nordeste 8 Nordeste 0 -- -- 50
2017-08-22 07:00:00 16.7 4 Nordeste 6 Norte 0 -- -- 53
2017-08-22 06:00:00 17.4 2 Nordeste 6 Nordeste 0 -- -- 49
2017-08-22 05:00:00 18.1 4 Sur 17 Nordeste 0 -- -- 45
2017-08-22 04:00:00 19.2 7 Nordeste 18 Nordeste 0 -- -- 38
2017-08-22 03:00:00 18.2 3 Norte 13 Nordeste 0 -- -- 45
2017-08-22 02:00:00 17.2 4 Nordeste 10 Norte 0 -- -- 48
2017-08-22 01:00:00 18.4 8 Norte 11 Norte 0 -- -- 45
2017-08-22 00:00:00 18.8 2 Nordeste 10 Norte 0 -- -- 44